Have a Safe July 4th! 

Flight Track Log - Related Links

Times and Time Zones

All times are in EDT time to prevent confusion due to time zone crossing. See the N319EE flight status page for this flight to view local times or setup timezone preferences in your user account.

Time Position Orientation Groundspeed Altitude Reporting Facility
EDT Latitude Longitude Course Direction KTS MPH feet Rate Location/Type
Thu 05:01:08 PM 43.1322 -77.6275 63° Northeast 153 176 1,900  Level Cleveland Center
Thu 05:02:09 PM 43.1103 -77.5725 119° Southeast 167 192 4,000 1,800 Climbing Cleveland Center
Thu 05:02:18 PM 43.1097 -77.5742 245° Southwest 165 190 4,000 1,400 Level Cleveland Center
Thu 05:03:09 PM 43.0764 -77.5114 126° Southeast 199 229 5,400 1,548 Climbing Cleveland Center
Thu 05:03:20 PM 43.0706 -77.5036 136° Southeast 189 217 5,600 1,180 Climbing Cleveland Center
Thu 05:04:10 PM 43.0411 -77.4472 126° Southeast 207 238 6,600 1,048 Climbing Cleveland Center
Thu 05:04:23 PM 43.0358 -77.4392 132° Southeast 205 236 6,700 885 Climbing Cleveland Center
Thu 05:05:11 PM 43.0039 -77.3797 126° Southeast 229 264 7,500 968 Climbing Cleveland Center
Thu 05:05:25 PM 42.9969 -77.3700 134° Southeast 222 255 7,700 1,100 Climbing Cleveland Center
Thu 05:06:11 PM 42.9625 -77.3111 129° Southeast 231 266 8,600 1,065 Climbing Cleveland Center
Thu 05:06:27 PM 42.9578 -77.3000 120° Southeast 230 265 8,800 692 Climbing Cleveland Center
Thu 05:07:29 PM 42.9183 -77.2286 127° Southeast 233 268 9,500 629 Climbing Cleveland Center
Thu 05:08:31 PM 42.8769 -77.1536 127° Southeast 242 278 10,100 194 Climbing Cleveland Center
Thu 05:09:33 PM 42.8347 -77.0775 127° Southeast 249 287 9,900 -48 Descending Cleveland Center
Thu 05:10:35 PM 42.7844 -76.9875 127° Southeast 250 288 10,000 48 Climbing Cleveland Center
Thu 05:11:37 PM 42.7425 -76.9133 128° Southeast 247 284 10,000  Level Cleveland Center
Thu 05:12:39 PM 42.7019 -76.8389 127° Southeast 246 283 10,000  Level Cleveland Center
Thu 05:13:41 PM 42.6619 -76.7644 126° Southeast 245 282 10,000  Level Cleveland Center
Thu 05:14:44 PM 42.6211 -76.6894 126° Southeast 245 282 10,000 -48 Level Cleveland Center
Thu 05:15:46 PM 42.5803 -76.6158 127° Southeast 244 281 9,900 -484 Descending Cleveland Center
Thu 05:16:48 PM 42.5303 -76.5247 127° Southeast 249 287 9,000 -435 Descending Cleveland Center
Thu 05:17:50 PM 42.4872 -76.4442 126° Southeast 260 299 9,000 -49 Level Cleveland Center
Thu 05:18:51 PM 42.4433 -76.3647 127° Southeast 250 288 8,900 -595 Descending New York Center
Thu 05:19:51 PM 42.4028 -76.2939 128° Southeast 250 288 7,800 -1,300 Descending New York Center
Thu 05:20:51 PM 42.3644 -76.2233 126° Southeast 239 275 6,300 -1,500 Descending New York Center
Thu 05:21:51 PM 42.3239 -76.1528 128° Southeast 239 275 4,800 -1,350 Descending New York Center
Thu 05:22:51 PM 42.2872 -76.0908 129° Southeast 239 275 3,600 -1,000 Descending New York Center
Thu 05:23:51 PM 42.2600 -76.0439 128° Southeast 202 232 2,800 -600 Descending New York Center
Thu 05:24:51 PM 42.2272 -75.9881 128° Southeast 175 201 2,400 -400 Descending New York Center

Login

Don't have an account? Register now (free) for customized features, flight alerts, and more!